createdAt,value
2022-11-03T00:00:12.743Z,101230.50
2022-11-03T00:02:39.575Z,101235.47
2022-11-03T00:05:26.078Z,101234.13
2022-11-03T00:07:52.586Z,101228.81
2022-11-03T00:10:18.990Z,101223.63
2022-11-03T00:12:45.440Z,101219.75
2022-11-03T00:15:11.847Z,101220.72
2022-11-03T00:17:38.186Z,101212.00
2022-11-03T00:20:04.752Z,101216.91
2022-11-03T00:22:33.115Z,101215.88
2022-11-03T00:24:59.624Z,101211.72
2022-11-03T00:27:26.006Z,101217.97
2022-11-03T00:29:52.418Z,101209.28
2022-11-03T00:32:18.900Z,101202.25
2022-11-03T00:34:45.374Z,101194.69
2022-11-03T00:37:11.733Z,101195.28
2022-11-03T00:39:38.095Z,101194.75
2022-11-03T00:42:04.553Z,101189.38
2022-11-03T00:44:30.930Z,101194.63
2022-11-03T00:46:57.349Z,101191.28
2022-11-03T00:49:23.722Z,101185.56
2022-11-03T00:51:50.116Z,101182.56
2022-11-03T00:54:16.479Z,101184.72
2022-11-03T00:56:44.207Z,101185.25
2022-11-03T00:59:10.909Z,101173.13
2022-11-03T01:01:43.866Z,101177.81
2022-11-03T01:04:30.537Z,101179.16
2022-11-03T01:06:58.176Z,101175.56
2022-11-03T01:09:24.603Z,101171.16
2022-11-03T01:12:09.552Z,101169.00
2022-11-03T01:14:37.710Z,101164.56
2022-11-03T01:17:13.842Z,101178.13
2022-11-03T01:19:40.469Z,101167.81
2022-11-03T01:22:10.620Z,101170.97
2022-11-03T01:24:38.327Z,101157.34
2022-11-03T01:27:04.750Z,101157.22
2022-11-03T01:29:31.159Z,101151.03
2022-11-03T01:31:57.964Z,101147.56
2022-11-03T01:34:24.381Z,101145.09
2022-11-03T01:36:50.891Z,101138.53
2022-11-03T01:39:18.146Z,101143.31
2022-11-03T01:41:45.531Z,101124.63
2022-11-03T01:44:11.863Z,101129.47
2022-11-03T01:46:44.186Z,101123.34
2022-11-03T01:49:25.506Z,101118.25
2022-11-03T01:51:54.910Z,101122.13
2022-11-03T01:54:23.003Z,101111.06
2022-11-03T01:56:51.400Z,101105.88
2022-11-03T01:59:18.741Z,101103.13
2022-11-03T02:01:45.559Z,101097.00
2022-11-03T02:04:25.389Z,101091.88
2022-11-03T02:06:57.245Z,101093.09
2022-11-03T02:09:24.488Z,101087.06
2022-11-03T02:12:09.130Z,101084.53
2022-11-03T02:14:37.242Z,101081.69
2022-11-03T02:17:06.465Z,101085.31
2022-11-03T02:19:44.468Z,101074.47
2022-11-03T02:22:35.342Z,101073.16
2022-11-03T02:25:20.794Z,101073.88
2022-11-03T02:27:47.262Z,101067.41
2022-11-03T02:30:13.723Z,101056.47
2022-11-03T02:32:50.513Z,101052.03
2022-11-03T02:35:28.492Z,101043.22
2022-11-03T02:37:57.663Z,101048.84
2022-11-03T02:40:27.731Z,101043.53
2022-11-03T02:42:54.862Z,101034.94
2022-11-03T02:45:22.547Z,101026.72
2022-11-03T02:47:49.699Z,101028.63
2022-11-03T02:50:16.940Z,101014.59
2022-11-03T02:52:44.820Z,101020.97
2022-11-03T02:55:29.970Z,101013.50
2022-11-03T02:58:15.132Z,101008.16
2022-11-03T03:00:44.748Z,101004.84
2022-11-03T03:03:31.415Z,101007.53
2022-11-03T03:06:02.168Z,100999.81
2022-11-03T03:08:29.805Z,101002.47
2022-11-03T03:10:57.388Z,100999.44
2022-11-03T03:13:24.409Z,100992.69
2022-11-03T03:15:56.786Z,100997.09
2022-11-03T03:18:26.534Z,100992.16
2022-11-03T03:21:00.118Z,100986.97
2022-11-03T03:23:28.633Z,100980.38
2022-11-03T03:25:59.257Z,100974.00
2022-11-03T03:28:29.446Z,100974.91
2022-11-03T03:30:57.597Z,100965.44
2022-11-03T03:33:25.019Z,100970.28
2022-11-03T03:35:52.740Z,100964.97
2022-11-03T03:38:21.615Z,100965.59
2022-11-03T03:40:50.467Z,100964.53
2022-11-03T03:43:17.279Z,100959.03
2022-11-03T03:45:45.052Z,100955.50
2022-11-03T03:48:12.029Z,100951.22
2022-11-03T03:50:39.760Z,100959.50
2022-11-03T03:53:07.133Z,100942.25
2022-11-03T03:55:37.774Z,100943.97
2022-11-03T03:58:05.686Z,100947.59
2022-11-03T04:00:32.518Z,100946.91
2022-11-03T04:02:59.567Z,100942.97
2022-11-03T04:05:26.627Z,100936.59
2022-11-03T04:07:53.073Z,100940.72
2022-11-03T04:10:20.543Z,100936.34
2022-11-03T04:13:05.854Z,100934.44
2022-11-03T04:16:01.766Z,100922.50
2022-11-03T04:19:06.388Z,100929.38
2022-11-03T04:21:51.428Z,100930.19
2022-11-03T04:24:17.769Z,100929.88
2022-11-03T04:26:44.124Z,100930.97
2022-11-03T04:29:10.975Z,100928.91
2022-11-03T04:31:37.442Z,100916.25
2022-11-03T04:34:04.692Z,100930.50
2022-11-03T04:36:31.153Z,100919.81
2022-11-03T04:38:57.617Z,100921.28
2022-11-03T04:41:25.215Z,100914.75
2022-11-03T04:43:52.640Z,100913.47
2022-11-03T04:46:26.950Z,100905.38
2022-11-03T04:48:54.200Z,100910.41
2022-11-03T04:51:25.526Z,100904.38
2022-11-03T04:54:15.242Z,100906.16
2022-11-03T04:56:41.807Z,100901.47
2022-11-03T04:59:12.615Z,100895.41
2022-11-03T05:01:39.640Z,100891.63
2022-11-03T05:04:13.162Z,100890.63
2022-11-03T05:06:40.075Z,100887.06
2022-11-03T05:09:14.657Z,100883.91
2022-11-03T05:11:45.374Z,100874.81
2022-11-03T05:14:17.495Z,100876.09
2022-11-03T05:16:44.449Z,100870.53
2022-11-03T05:19:22.625Z,100870.75
2022-11-03T05:21:50.094Z,100860.34
2022-11-03T05:24:18.652Z,100849.13
2022-11-03T05:26:45.437Z,100854.09
2022-11-03T05:29:19.596Z,100845.72
2022-11-03T05:31:50.784Z,100841.88
2022-11-03T05:34:26.561Z,100845.25
2022-11-03T05:36:53.036Z,100841.66
2022-11-03T05:39:28.722Z,100836.81
2022-11-03T05:41:55.427Z,100832.28
2022-11-03T05:44:21.786Z,100837.72
2022-11-03T05:46:48.163Z,100820.91
2022-11-03T05:49:15.001Z,100810.91
2022-11-03T05:51:42.623Z,100818.38
2022-11-03T05:54:19.844Z,100819.56
2022-11-03T05:56:46.948Z,100810.66
2022-11-03T05:59:14.034Z,100814.56
2022-11-03T06:01:40.791Z,100812.28
2022-11-03T06:04:13.082Z,100807.78
2022-11-03T06:06:39.581Z,100808.63
2022-11-03T06:09:15.959Z,100805.78
2022-11-03T06:11:42.624Z,100803.47
2022-11-03T06:14:24.064Z,100798.81
2022-11-03T06:16:54.034Z,100790.47
2022-11-03T06:19:28.825Z,100796.94
2022-11-03T06:21:57.084Z,100790.91
2022-11-03T06:24:25.510Z,100787.88
2022-11-03T06:26:52.744Z,100778.41
2022-11-03T06:29:20.284Z,100778.53
2022-11-03T06:31:48.065Z,100774.56
2022-11-03T06:34:34.788Z,100786.94
2022-11-03T06:37:10.830Z,100778.50
2022-11-03T06:39:39.090Z,100776.56
2022-11-03T06:42:13.053Z,100770.31
2022-11-03T06:44:49.928Z,100766.16
2022-11-03T06:47:26.642Z,100759.56
2022-11-03T06:49:54.911Z,100757.78
2022-11-03T06:52:27.487Z,100752.44
2022-11-03T06:54:55.272Z,100745.22
2022-11-03T06:57:21.810Z,100740.50
2022-11-03T06:59:56.992Z,100738.56
2022-11-03T07:02:47.969Z,100733.63
2022-11-03T07:05:20.096Z,100730.66
2022-11-03T07:07:46.886Z,100737.09
2022-11-03T07:10:13.287Z,100737.94
2022-11-03T07:12:40.416Z,100733.72
2022-11-03T07:15:16.758Z,100727.28
2022-11-03T07:17:43.122Z,100730.97
2022-11-03T07:20:13.441Z,100733.19
2022-11-03T07:22:39.843Z,100726.56
2022-11-03T07:25:06.860Z,100720.44
2022-11-03T07:27:36.059Z,100725.28
2022-11-03T07:30:08.422Z,100724.88
2022-11-03T07:32:35.099Z,100708.13
2022-11-03T07:35:04.839Z,100717.63
2022-11-03T07:37:31.263Z,100696.41
2022-11-03T07:39:58.455Z,100706.66
2022-11-03T07:42:26.045Z,100710.41
2022-11-03T07:44:55.675Z,100694.84
2022-11-03T07:47:23.410Z,100700.47
2022-11-03T07:49:49.809Z,100695.84
2022-11-03T07:52:18.988Z,100700.47
2022-11-03T07:54:45.453Z,100686.66
2022-11-03T07:57:14.945Z,100675.59
2022-11-03T07:59:43.749Z,100680.28
2022-11-03T08:02:29.443Z,100674.91
2022-11-03T08:04:56.079Z,100681.41
2022-11-03T08:07:22.523Z,100681.88
2022-11-03T08:09:48.907Z,100684.97
2022-11-03T08:12:15.284Z,100680.19
2022-11-03T08:14:41.745Z,100672.66
2022-11-03T08:17:08.159Z,100670.47
2022-11-03T08:19:34.704Z,100669.63
2022-11-03T08:22:01.079Z,100670.69
2022-11-03T08:24:27.468Z,100670.41
2022-11-03T08:26:53.865Z,100663.34
2022-11-03T08:29:21.288Z,100655.63
2022-11-03T08:31:47.778Z,100651.31
2022-11-03T08:34:14.169Z,100651.03
2022-11-03T08:36:40.570Z,100650.53
2022-11-03T08:39:06.964Z,100651.50
2022-11-03T08:41:33.424Z,100653.75
2022-11-03T08:44:00.142Z,100643.19
2022-11-03T08:46:26.562Z,100618.00
2022-11-03T08:48:53.164Z,100615.28
2022-11-03T08:51:19.610Z,100609.31
2022-11-03T08:53:50.376Z,100604.81
2022-11-03T08:56:20.469Z,100609.41
2022-11-03T08:58:48.814Z,100605.28
2022-11-03T09:01:15.254Z,100597.91
2022-11-03T09:03:41.751Z,100588.59
2022-11-03T09:06:08.720Z,100591.03
2022-11-03T09:11:21.456Z,100594.69
2022-11-03T09:13:47.836Z,100590.69
2022-11-03T09:16:14.270Z,100580.53
2022-11-03T09:18:40.681Z,100573.69
2022-11-03T09:21:07.297Z,100566.22
2022-11-03T09:23:33.693Z,100547.50
2022-11-03T09:26:00.125Z,100539.81
2022-11-03T09:28:26.499Z,100531.28
2022-11-03T09:30:52.945Z,100530.47
2022-11-03T09:33:19.443Z,100523.03
2022-11-03T09:35:45.976Z,100500.63
2022-11-03T09:38:12.459Z,100508.13
2022-11-03T09:40:38.981Z,100504.88
2022-11-03T09:43:05.794Z,100499.91
2022-11-03T09:45:32.586Z,100483.88
2022-11-03T09:47:59.113Z,100482.28
2022-11-03T09:50:25.725Z,100482.41
2022-11-03T09:52:54.292Z,100475.66
2022-11-03T09:55:25.027Z,100475.41
2022-11-03T09:57:55.358Z,100470.66
2022-11-03T10:00:22.694Z,100456.66
2022-11-03T10:02:49.680Z,100461.84
2022-11-03T10:05:19.290Z,100438.31
2022-11-03T10:07:45.844Z,100429.09
2022-11-03T10:10:17.003Z,100434.16
2022-11-03T10:12:43.627Z,100432.91
2022-11-03T10:15:14.361Z,100423.50
2022-11-03T10:17:40.819Z,100424.25
2022-11-03T10:20:11.337Z,100434.81
2022-11-03T10:22:40.977Z,100426.63
2022-11-03T10:25:25.940Z,100421.19
2022-11-03T10:27:52.354Z,100420.97
2022-11-03T10:30:18.822Z,100426.47
2022-11-03T10:32:45.232Z,100418.50
2022-11-03T10:35:30.310Z,100398.22
2022-11-03T10:37:57.130Z,100400.53
2022-11-03T10:40:52.236Z,100387.13
2022-11-03T10:43:18.849Z,100378.47
2022-11-03T10:45:45.293Z,100381.00
2022-11-03T10:48:11.786Z,100361.53
2022-11-03T10:50:42.037Z,100354.69
2022-11-03T10:53:19.928Z,100346.03
2022-11-03T10:55:46.781Z,100323.03
2022-11-03T10:58:13.274Z,100328.72
2022-11-03T11:00:42.939Z,100311.81
2022-11-03T11:03:15.105Z,100315.91
2022-11-03T11:05:45.236Z,100318.22
2022-11-03T11:08:13.605Z,100320.59
2022-11-03T11:10:43.351Z,100317.13
2022-11-03T11:13:18.969Z,100318.13
2022-11-03T11:15:46.642Z,100315.69
2022-11-03T11:18:31.215Z,100307.91
2022-11-03T11:21:01.656Z,100309.84
2022-11-03T11:23:28.038Z,100315.19
2022-11-03T11:26:09.794Z,100311.66
2022-11-03T11:28:54.966Z,100317.81
2022-11-03T11:31:27.532Z,100309.66
2022-11-03T11:34:09.327Z,100321.69
2022-11-03T11:36:36.691Z,100325.03
2022-11-03T11:39:13.069Z,100308.59
2022-11-03T11:41:58.159Z,100299.16
2022-11-03T11:44:40.079Z,100283.09
2022-11-03T11:47:18.702Z,100273.13
2022-11-03T11:49:45.149Z,100247.41
2022-11-03T11:52:15.463Z,100244.66
2022-11-03T11:54:45.516Z,100248.00
2022-11-03T11:57:18.523Z,100236.38
2022-11-03T11:59:46.422Z,100219.53
2022-11-03T12:02:18.614Z,100212.22
2022-11-03T12:04:47.980Z,100212.69
2022-11-03T12:07:14.556Z,100204.75
2022-11-03T12:09:41.746Z,100191.91
2022-11-03T12:12:08.945Z,100182.16
2022-11-03T12:14:37.165Z,100188.75
2022-11-03T12:17:18.784Z,100171.69
2022-11-03T12:19:49.610Z,100180.91
2022-11-03T12:22:26.080Z,100173.03
2022-11-03T12:24:56.637Z,100166.69
2022-11-03T12:27:25.854Z,100159.34
2022-11-03T12:29:53.196Z,100147.81
2022-11-03T12:32:32.891Z,100141.44
2022-11-03T12:35:01.788Z,100138.66
2022-11-03T12:37:48.956Z,100125.38
2022-11-03T12:40:15.496Z,100116.50
2022-11-03T12:42:41.959Z,100112.84
2022-11-03T12:45:08.812Z,100104.78
2022-11-03T12:47:35.334Z,100106.88
2022-11-03T12:50:01.845Z,100098.06
2022-11-03T12:52:28.219Z,100101.91
2022-11-03T12:54:54.685Z,100091.09
2022-11-03T12:57:21.038Z,100086.09
2022-11-03T12:59:47.557Z,100071.19
2022-11-03T13:02:14.141Z,100065.91
2022-11-03T13:04:40.688Z,100064.84
2022-11-03T13:07:07.119Z,100066.16
2022-11-03T13:09:35.710Z,100065.41
2022-11-03T13:12:21.176Z,100060.63
2022-11-03T13:14:48.735Z,100045.84
2022-11-03T13:17:15.334Z,100042.00
2022-11-03T13:19:41.788Z,100030.84
2022-11-03T13:22:08.255Z,100020.75
2022-11-03T13:24:34.664Z,100010.41
2022-11-03T13:27:01.107Z,100007.41
2022-11-03T13:29:31.156Z,100001.16
2022-11-03T13:32:01.864Z,99994.09
2022-11-03T13:34:28.586Z,99979.81
2022-11-03T13:36:55.188Z,99971.38
2022-11-03T13:39:21.639Z,99960.69
2022-11-03T13:41:48.076Z,99954.72
2022-11-03T13:44:14.468Z,99961.78
2022-11-03T13:46:40.875Z,99941.34
2022-11-03T13:51:53.835Z,99953.06
2022-11-03T13:59:53.038Z,99944.69
2022-11-03T14:05:07.293Z,99929.09
2022-11-03T14:07:35.376Z,99923.22
2022-11-03T14:10:03.934Z,99912.19
2022-11-03T14:12:30.920Z,99905.84
2022-11-03T14:14:57.807Z,99900.09
2022-11-03T14:17:24.603Z,99900.66
2022-11-03T14:19:53.059Z,99903.66
2022-11-03T14:22:23.880Z,99904.28
2022-11-03T14:24:51.059Z,99891.81
2022-11-03T14:27:18.306Z,99886.56
2022-11-03T14:29:45.041Z,99888.84
2022-11-03T14:32:12.180Z,99879.09
2022-11-03T14:34:38.792Z,99880.50
2022-11-03T14:37:05.766Z,99886.25
2022-11-03T14:39:32.234Z,99884.41
2022-11-03T14:42:04.482Z,99887.44
2022-11-03T14:44:34.816Z,99892.41
2022-11-03T14:47:01.982Z,99893.56
2022-11-03T14:49:29.093Z,99896.00
2022-11-03T14:51:56.928Z,99890.41
2022-11-03T14:54:26.467Z,99889.00
2022-11-03T14:56:53.780Z,99876.50
2022-11-03T14:59:20.627Z,99874.06
2022-11-03T15:01:47.670Z,99876.44
2022-11-03T15:04:14.307Z,99879.94
2022-11-03T15:06:41.416Z,99877.59
2022-11-03T15:11:39.825Z,99863.09
2022-11-03T15:14:06.251Z,99859.66
2022-11-03T15:16:34.411Z,99867.34
2022-11-03T15:19:00.773Z,99870.50
2022-11-03T15:21:28.065Z,99867.66
2022-11-03T15:26:40.764Z,99858.00
2022-11-03T15:29:07.148Z,99850.53
2022-11-03T15:31:33.530Z,99832.78
2022-11-03T15:34:01.852Z,99829.00
2022-11-03T15:36:31.701Z,99817.09
2022-11-03T15:38:58.163Z,99805.44
2022-11-03T15:41:24.623Z,99788.94
2022-11-03T15:43:51.027Z,99797.78
2022-11-03T15:46:18.167Z,99791.78
2022-11-03T15:48:45.132Z,99788.72
2022-11-03T15:51:12.125Z,99785.56
2022-11-03T15:53:38.702Z,99787.69
2022-11-03T15:56:05.333Z,99775.38
2022-11-03T15:58:34.131Z,99773.19
2022-11-03T16:01:03.813Z,99769.59
2022-11-03T16:03:31.784Z,99761.53
2022-11-03T16:05:58.403Z,99756.16
2022-11-03T16:08:24.861Z,99751.00
2022-11-03T16:10:57.255Z,99750.72
2022-11-03T16:13:24.977Z,99740.91
2022-11-03T16:15:51.701Z,99743.84
2022-11-03T16:18:18.191Z,99740.72
2022-11-03T16:20:44.733Z,99742.72
2022-11-03T16:23:11.115Z,99737.69
2022-11-03T16:25:37.474Z,99743.47
2022-11-03T16:28:04.083Z,99734.88
2022-11-03T16:30:30.724Z,99728.56
2022-11-03T16:32:57.188Z,99729.06
2022-11-03T16:35:23.607Z,99727.63
2022-11-03T16:37:50.020Z,99727.72
2022-11-03T16:40:19.657Z,99715.94
2022-11-03T16:42:46.852Z,99716.91
2022-11-03T16:45:20.808Z,99720.78
2022-11-03T16:47:47.785Z,99709.13
2022-11-03T16:50:14.367Z,99709.34
2022-11-03T16:52:40.775Z,99710.28
2022-11-03T16:55:07.653Z,99716.16
2022-11-03T16:57:34.150Z,99718.59
2022-11-03T17:00:00.534Z,99712.25
2022-11-03T17:02:27.941Z,99706.91
2022-11-03T17:04:54.747Z,99703.66
2022-11-03T17:07:21.158Z,99696.84
2022-11-03T17:09:47.545Z,99688.63
2022-11-03T17:12:14.158Z,99675.28
2022-11-03T17:14:40.623Z,99671.38
2022-11-03T17:17:06.992Z,99662.47
2022-11-03T17:19:33.358Z,99656.47
2022-11-03T17:21:59.833Z,99662.75
2022-11-03T17:24:26.550Z,99662.25
2022-11-03T17:26:52.927Z,99656.03
2022-11-03T17:29:21.622Z,99652.59
2022-11-03T17:31:49.191Z,99639.91
2022-11-03T17:34:16.751Z,99647.66
2022-11-03T17:36:43.218Z,99641.34
2022-11-03T17:39:14.166Z,99627.25
2022-11-03T17:41:40.605Z,99623.16
2022-11-03T17:44:13.206Z,99635.56
2022-11-03T17:46:39.971Z,99635.47
2022-11-03T17:49:06.378Z,99629.13
2022-11-03T17:51:33.484Z,99640.81
2022-11-03T17:54:01.092Z,99636.19
2022-11-03T17:56:30.447Z,99633.19
2022-11-03T17:58:57.274Z,99637.22
2022-11-03T18:01:25.047Z,99639.44
2022-11-03T18:03:52.202Z,99634.94
2022-11-03T18:06:19.747Z,99633.88
2022-11-03T18:08:49.596Z,99621.34
2022-11-03T18:11:39.385Z,99626.59
2022-11-03T18:14:05.842Z,99622.72
2022-11-03T18:16:32.251Z,99621.16
2022-11-03T18:18:58.694Z,99622.59
2022-11-03T18:21:25.164Z,99623.78
2022-11-03T18:23:51.603Z,99622.59
2022-11-03T18:26:19.645Z,99626.00
2022-11-03T18:28:46.630Z,99619.03
2022-11-03T18:31:18.589Z,99622.00
2022-11-03T18:33:45.128Z,99627.19
2022-11-03T18:36:14.546Z,99628.91
2022-11-03T18:38:42.311Z,99622.28
2022-11-03T18:41:33.676Z,99620.19
2022-11-03T18:44:00.200Z,99615.09
2022-11-03T18:46:26.658Z,99613.06
2022-11-03T18:48:53.071Z,99606.72
2022-11-03T18:51:19.515Z,99611.72
2022-11-03T18:53:46.292Z,99603.22
2022-11-03T18:56:13.433Z,99607.91
2022-11-03T18:58:40.046Z,99603.97
2022-11-03T19:01:07.149Z,99609.66
2022-11-03T19:03:33.617Z,99599.28
2022-11-03T19:06:00.115Z,99596.03
2022-11-03T19:08:31.425Z,99590.16
2022-11-03T19:11:03.493Z,99584.28
2022-11-03T19:13:50.196Z,99584.66
2022-11-03T19:16:18.544Z,99582.84
2022-11-03T19:18:45.078Z,99578.16
2022-11-03T19:21:15.955Z,99571.97
2022-11-03T19:23:47.608Z,99573.25
2022-11-03T19:26:14.740Z,99571.06
2022-11-03T19:28:41.364Z,99572.63
2022-11-03T19:31:11.399Z,99577.44
2022-11-03T19:33:38.213Z,99575.31
2022-11-03T19:36:04.869Z,99573.50
2022-11-03T19:38:31.856Z,99575.78
2022-11-03T19:41:27.606Z,99576.03
2022-11-03T19:43:54.456Z,99566.97
2022-11-03T19:46:21.579Z,99565.53
2022-11-03T19:48:48.261Z,99569.53
2022-11-03T19:51:15.254Z,99560.63
2022-11-03T19:53:47.030Z,99561.25
2022-11-03T19:56:15.235Z,99562.38
2022-11-03T19:58:42.388Z,99570.25
2022-11-03T20:01:09.092Z,99567.53
2022-11-03T20:03:36.514Z,99560.81
2022-11-03T20:06:03.421Z,99556.34
2022-11-03T20:08:32.160Z,99563.88
2022-11-03T20:10:58.570Z,99560.88
2022-11-03T20:13:26.404Z,99556.34
2022-11-03T20:15:59.070Z,99567.06
2022-11-03T20:18:26.871Z,99558.00
2022-11-03T20:20:53.608Z,99555.13
2022-11-03T20:23:22.449Z,99560.16
2022-11-03T20:25:49.508Z,99561.88
2022-11-03T20:28:20.843Z,99551.47
2022-11-03T20:30:47.996Z,99553.72
2022-11-03T20:33:15.776Z,99559.34
2022-11-03T20:35:43.015Z,99561.19
2022-11-03T20:38:11.919Z,99563.53
2022-11-03T20:40:38.912Z,99560.63
2022-11-03T20:43:05.679Z,99562.34
2022-11-03T20:45:32.062Z,99562.78
2022-11-03T20:47:58.446Z,99568.06
2022-11-03T20:50:25.295Z,99557.78
2022-11-03T20:52:52.600Z,99558.28
2022-11-03T20:55:20.691Z,99556.00
2022-11-03T20:57:47.888Z,99548.63
2022-11-03T21:00:21.426Z,99558.38
2022-11-03T21:02:48.886Z,99557.94
2022-11-03T21:05:16.763Z,99561.06
2022-11-03T21:07:43.533Z,99561.53
2022-11-03T21:10:10.643Z,99574.56
2022-11-03T21:12:37.507Z,99579.41
2022-11-03T21:15:31.633Z,99577.41
2022-11-03T21:18:16.790Z,99586.72
2022-11-03T21:20:44.958Z,99587.19
2022-11-03T21:23:16.487Z,99585.91
2022-11-03T21:25:42.904Z,99587.16
2022-11-03T21:28:09.739Z,99588.47
2022-11-03T21:30:37.230Z,99587.28
2022-11-03T21:33:04.005Z,99579.16
2022-11-03T21:35:30.547Z,99583.91
2022-11-03T21:37:56.976Z,99579.31
2022-11-03T21:40:23.358Z,99579.72
2022-11-03T21:43:08.465Z,99582.03
2022-11-03T21:45:35.207Z,99591.97
2022-11-03T21:48:21.032Z,99594.88
2022-11-03T21:50:47.754Z,99597.38
2022-11-03T21:53:14.543Z,99589.25
2022-11-03T21:55:41.369Z,99589.88
2022-11-03T21:58:07.958Z,99587.28
2022-11-03T22:00:34.750Z,99584.78
2022-11-03T22:03:01.170Z,99593.75
2022-11-03T22:05:27.771Z,99600.91
2022-11-03T22:07:54.200Z,99593.22
2022-11-03T22:10:20.715Z,99575.75
2022-11-03T22:12:47.120Z,99582.19
2022-11-03T22:15:32.244Z,99610.63
2022-11-03T22:18:02.132Z,99614.91
2022-11-03T22:20:47.375Z,99606.56
2022-11-03T22:23:34.151Z,99619.84
2022-11-03T22:26:20.109Z,99611.81
2022-11-03T22:29:06.450Z,99621.91
2022-11-03T22:31:41.908Z,99631.72
2022-11-03T22:34:27.107Z,99632.16
2022-11-03T22:36:53.475Z,99643.69
2022-11-03T22:39:38.645Z,99651.91
2022-11-03T22:42:23.632Z,99664.91
2022-11-03T22:45:08.768Z,99669.03
2022-11-03T22:47:35.379Z,99671.97
2022-11-03T22:50:01.796Z,99681.19
2022-11-03T22:52:28.195Z,99683.25
2022-11-03T22:54:54.557Z,99701.94
2022-11-03T22:57:20.898Z,99687.03
2022-11-03T22:59:47.415Z,99689.97
2022-11-03T23:02:14.051Z,99696.69
2022-11-03T23:04:40.563Z,99687.38
2022-11-03T23:07:06.946Z,99678.25
2022-11-03T23:09:33.291Z,99682.47
2022-11-03T23:11:59.644Z,99694.53
2022-11-03T23:14:45.958Z,99689.91
2022-11-03T23:17:12.439Z,99695.25
2022-11-03T23:19:57.756Z,99708.94
2022-11-03T23:22:24.113Z,99708.94
2022-11-03T23:24:59.904Z,99714.59
2022-11-03T23:27:26.326Z,99734.13
2022-11-03T23:29:52.705Z,99747.97
2022-11-03T23:32:19.199Z,99749.44
2022-11-03T23:34:45.574Z,99759.31
2022-11-03T23:37:11.955Z,99756.78
2022-11-03T23:39:38.302Z,99761.81
2022-11-03T23:42:06.509Z,99763.69
2022-11-03T23:44:52.891Z,99768.94
2022-11-03T23:47:37.844Z,99772.31
2022-11-03T23:50:05.175Z,99781.84
2022-11-03T23:52:31.543Z,99785.31
2022-11-03T23:54:57.899Z,99800.97
2022-11-03T23:57:43.106Z,99791.41
